sensor_id;sensor_type;location;lat;lon;timestamp;pressure;altitude;pressure_sealevel;temperature;humidity
2549;BME280;1284;53.520;10.248;2024-02-14T04:48:01;100651.56;;;7.74;98.76
2549;BME280;1284;53.520;10.248;2024-02-14T04:50:27;100653.81;;;7.72;98.53
2549;BME280;1284;53.520;10.248;2024-02-14T04:52:53;100640.84;;;7.74;98.94
2549;BME280;1284;53.520;10.248;2024-02-14T04:55:19;100649.91;;;7.70;99.70
2549;BME280;1284;53.520;10.248;2024-02-14T04:57:44;100640.06;;;7.74;99.84
2549;BME280;1284;53.520;10.248;2024-02-14T05:00:10;100635.63;;;7.78;100.00
2549;BME280;1284;53.520;10.248;2024-02-14T05:02:36;100629.31;;;7.98;98.94
2549;BME280;1284;53.520;10.248;2024-02-14T05:05:02;100632.25;;;7.93;98.54
2549;BME280;1284;53.520;10.248;2024-02-14T05:07:28;100631.00;;;7.78;98.92
2549;BME280;1284;53.520;10.248;2024-02-14T05:09:54;100633.25;;;7.76;100.00
2549;BME280;1284;53.520;10.248;2024-02-14T05:12:21;100627.09;;;7.88;99.89
2549;BME280;1284;53.520;10.248;2024-02-14T05:15:06;100631.66;;;7.99;98.55
2549;BME280;1284;53.520;10.248;2024-02-14T05:17:34;100623.31;;;7.89;98.60
2549;BME280;1284;53.520;10.248;2024-02-14T05:20:00;100624.75;;;7.98;99.20
2549;BME280;1284;53.520;10.248;2024-02-14T05:22:43;100610.78;;;7.93;98.94
2549;BME280;1284;53.520;10.248;2024-02-14T05:25:11;100609.13;;;7.88;99.46
2549;BME280;1284;53.520;10.248;2024-02-14T05:27:45;100602.66;;;7.89;100.00
2549;BME280;1284;53.520;10.248;2024-02-14T05:30:12;100606.75;;;7.99;100.00
2549;BME280;1284;53.520;10.248;2024-02-14T05:32:38;100605.44;;;7.93;99.66
2549;BME280;1284;53.520;10.248;2024-02-14T05:35:05;100610.91;;;7.96;99.50
2549;BME280;1284;53.520;10.248;2024-02-14T05:37:31;100605.19;;;7.86;100.00
2549;BME280;1284;53.520;10.248;2024-02-14T05:39:57;100595.38;;;7.90;100.00
2549;BME280;1284;53.520;10.248;2024-02-14T05:42:22;100598.84;;;7.90;100.00
2549;BME280;1284;53.520;10.248;2024-02-14T05:44:48;100596.84;;;7.87;100.00
2549;BME280;1284;53.520;10.248;2024-02-14T05:47:13;100601.75;;;7.97;100.00
2549;BME280;1284;53.520;10.248;2024-02-14T05:49:41;100602.41;;;7.94;100.00
2549;BME280;1284;53.520;10.248;2024-02-14T05:52:10;100595.78;;;8.04;100.00
2549;BME280;1284;53.520;10.248;2024-02-14T05:54:36;100597.38;;;8.05;100.00
2549;BME280;1284;53.520;10.248;2024-02-14T05:57:01;100594.47;;;7.98;100.00
2549;BME280;1284;53.520;10.248;2024-02-14T05:59:27;100593.66;;;8.09;100.00
2549;BME280;1284;53.520;10.248;2024-02-14T06:01:56;100596.88;;;8.15;100.00
2549;BME280;1284;53.520;10.248;2024-02-14T06:04:24;100600.25;;;8.12;100.00
2549;BME280;1284;53.520;10.248;2024-02-14T06:13:14;100583.53;;;8.03;100.00
2549;BME280;1284;53.520;10.248;2024-02-14T06:19:54;100586.16;;;8.15;100.00
2549;BME280;1284;53.520;10.248;2024-02-14T06:22:57;100591.31;;;8.08;100.00
2549;BME280;1284;53.520;10.248;2024-02-14T06:25:33;100584.53;;;7.98;100.00
2549;BME280;1284;53.520;10.248;2024-02-14T06:28:13;100586.84;;;8.12;100.00
2549;BME280;1284;53.520;10.248;2024-02-14T06:31:14;100585.72;;;8.25;100.00
2549;BME280;1284;53.520;10.248;2024-02-14T06:33:56;100585.13;;;8.32;100.00
2549;BME280;1284;53.520;10.248;2024-02-14T06:36:24;100592.41;;;8.19;100.00
2549;BME280;1284;53.520;10.248;2024-02-14T06:38:52;100585.56;;;8.34;100.00
2549;BME280;1284;53.520;10.248;2024-02-14T06:41:18;100589.28;;;8.17;100.00
2549;BME280;1284;53.520;10.248;2024-02-14T06:43:54;100598.44;;;8.16;100.00
2549;BME280;1284;53.520;10.248;2024-02-14T06:46:22;100597.84;;;8.35;100.00
2549;BME280;1284;53.520;10.248;2024-02-14T06:48:47;100582.63;;;8.39;100.00
2549;BME280;1284;53.520;10.248;2024-02-14T06:51:13;100595.63;;;8.37;100.00
2549;BME280;1284;53.520;10.248;2024-02-14T06:53:44;100594.50;;;8.38;100.00
2549;BME280;1284;53.520;10.248;2024-02-14T06:56:19;100592.59;;;8.38;100.00
2549;BME280;1284;53.520;10.248;2024-02-14T06:58:45;100590.16;;;8.21;100.00
2549;BME280;1284;53.520;10.248;2024-02-14T07:01:33;100590.06;;;8.17;100.00
2549;BME280;1284;53.520;10.248;2024-02-14T07:04:45;100589.06;;;8.22;100.00
2549;BME280;1284;53.520;10.248;2024-02-14T07:07:16;100584.44;;;8.35;100.00
2549;BME280;1284;53.520;10.248;2024-02-14T07:12:46;100590.56;;;8.47;100.00
2549;BME280;1284;53.520;10.248;2024-02-14T07:15:19;100583.44;;;8.39;100.00
2549;BME280;1284;53.520;10.248;2024-02-14T07:17:48;100589.69;;;8.43;100.00
2549;BME280;1284;53.520;10.248;2024-02-14T07:20:13;100587.13;;;8.35;100.00
2549;BME280;1284;53.520;10.248;2024-02-14T07:22:45;100590.16;;;8.33;100.00
2549;BME280;1284;53.520;10.248;2024-02-14T07:25:15;100586.94;;;8.28;100.00
2549;BME280;1284;53.520;10.248;2024-02-14T07:27:44;100586.94;;;8.28;100.00
2549;BME280;1284;53.520;10.248;2024-02-14T07:30:14;100588.03;;;8.27;100.00
2549;BME280;1284;53.520;10.248;2024-02-14T07:32:43;100590.78;;;8.42;100.00
2549;BME280;1284;53.520;10.248;2024-02-14T07:35:12;100591.09;;;8.53;100.00
2549;BME280;1284;53.520;10.248;2024-02-14T07:37:39;100587.09;;;8.47;100.00
2549;BME280;1284;53.520;10.248;2024-02-14T07:40:18;100593.50;;;8.58;100.00
2549;BME280;1284;53.520;10.248;2024-02-14T07:42:43;100597.13;;;8.50;100.00
2549;BME280;1284;53.520;10.248;2024-02-14T07:45:18;100584.16;;;8.52;100.00
2549;BME280;1284;53.520;10.248;2024-02-14T07:47:49;100585.47;;;8.58;100.00
2549;BME280;1284;53.520;10.248;2024-02-14T07:50:17;100583.47;;;8.55;100.00
2549;BME280;1284;53.520;10.248;2024-02-14T07:52:48;100592.25;;;8.67;100.00
2549;BME280;1284;53.520;10.248;2024-02-14T07:55:14;100585.22;;;8.63;100.00
2549;BME280;1284;53.520;10.248;2024-02-14T07:57:41;100583.38;;;8.51;100.00
2549;BME280;1284;53.520;10.248;2024-02-14T08:00:25;100579.59;;;8.68;100.00
2549;BME280;1284;53.520;10.248;2024-02-14T08:07:49;100581.72;;;8.74;100.00
2549;BME280;1284;53.520;10.248;2024-02-14T08:18:18;100578.97;;;8.86;100.00
2549;BME280;1284;53.520;10.248;2024-02-14T08:20:47;100577.31;;;8.82;100.00
2549;BME280;1284;53.520;10.248;2024-02-14T08:23:15;100581.88;;;8.81;100.00
2549;BME280;1284;53.520;10.248;2024-02-14T08:25:49;100578.53;;;8.84;100.00
2549;BME280;1284;53.520;10.248;2024-02-14T08:28:23;100574.19;;;8.95;100.00
2549;BME280;1284;53.520;10.248;2024-02-14T08:31:17;100584.09;;;9.07;100.00
2549;BME280;1284;53.520;10.248;2024-02-14T08:33:49;100586.69;;;9.03;100.00
2549;BME280;1284;53.520;10.248;2024-02-14T08:36:21;100576.97;;;8.99;100.00
2549;BME280;1284;53.520;10.248;2024-02-14T08:38:53;100581.56;;;9.14;100.00
2549;BME280;1284;53.520;10.248;2024-02-14T08:45:30;100584.88;;;9.07;100.00
2549;BME280;1284;53.520;10.248;2024-02-14T08:47:59;100583.56;;;9.17;100.00
2549;BME280;1284;53.520;10.248;2024-02-14T08:50:28;100575.84;;;9.16;100.00
2549;BME280;1284;53.520;10.248;2024-02-14T09:42:44;100590.09;;;10.01;100.00
2549;BME280;1284;53.520;10.248;2024-02-14T09:45:16;100584.78;;;10.04;100.00
2549;BME280;1284;53.520;10.248;2024-02-14T09:47:52;100590.88;;;10.01;100.00
2549;BME280;1284;53.520;10.248;2024-02-14T09:50:19;100592.47;;;10.02;100.00
2549;BME280;1284;53.520;10.248;2024-02-14T09:52:48;100587.41;;;10.01;100.00
2549;BME280;1284;53.520;10.248;2024-02-14T09:55:19;100591.22;;;10.16;100.00
2549;BME280;1284;53.520;10.248;2024-02-14T09:57:46;100597.53;;;10.23;100.00
2549;BME280;1284;53.520;10.248;2024-02-14T10:00:13;100590.00;;;10.32;100.00
2549;BME280;1284;53.520;10.248;2024-02-14T10:02:41;100593.13;;;10.34;100.00
2549;BME280;1284;53.520;10.248;2024-02-14T10:05:17;100600.28;;;10.46;100.00
2549;BME280;1284;53.520;10.248;2024-02-14T10:07:51;100596.38;;;10.43;100.00
2549;BME280;1284;53.520;10.248;2024-02-14T10:10:32;100598.44;;;10.31;100.00
2549;BME280;1284;53.520;10.248;2024-02-14T10:13:16;100592.66;;;10.29;100.00
2549;BME280;1284;53.520;10.248;2024-02-14T10:16:45;100602.34;;;10.52;100.00
2549;BME280;1284;53.520;10.248;2024-02-14T10:19:18;100602.06;;;10.57;100.00
2549;BME280;1284;53.520;10.248;2024-02-14T10:25:02;100596.03;;;10.64;100.00
2549;BME280;1284;53.520;10.248;2024-02-14T10:27:57;100604.47;;;10.62;100.00
2549;BME280;1284;53.520;10.248;2024-02-14T10:30:25;100610.28;;;10.64;100.00
2549;BME280;1284;53.520;10.248;2024-02-14T10:32:54;100614.06;;;10.82;100.00
2549;BME280;1284;53.520;10.248;2024-02-14T10:35:25;100616.34;;;10.80;100.00
2549;BME280;1284;53.520;10.248;2024-02-14T17:18:16;100729.56;;;12.98;100.00
2549;BME280;1284;53.520;10.248;2024-02-14T17:20:57;100724.59;;;13.00;100.00
2549;BME280;1284;53.520;10.248;2024-02-14T17:23:22;100736.69;;;13.10;100.00
2549;BME280;1284;53.520;10.248;2024-02-14T17:25:48;100737.38;;;13.03;100.00
2549;BME280;1284;53.520;10.248;2024-02-14T17:28:17;100742.09;;;13.10;100.00
2549;BME280;1284;53.520;10.248;2024-02-14T17:30:45;100742.50;;;13.12;100.00
2549;BME280;1284;53.520;10.248;2024-02-14T17:37:16;100743.88;;;12.99;100.00
2549;BME280;1284;53.520;10.248;2024-02-14T17:39:52;100744.00;;;13.09;100.00
2549;BME280;1284;53.520;10.248;2024-02-14T17:45:21;100747.16;;;13.15;100.00
2549;BME280;1284;53.520;10.248;2024-02-14T17:55:15;100755.72;;;12.87;100.00
2549;BME280;1284;53.520;10.248;2024-02-14T17:58:02;100755.41;;;12.96;100.00
2549;BME280;1284;53.520;10.248;2024-02-14T18:01:00;100750.91;;;13.03;100.00
2549;BME280;1284;53.520;10.248;2024-02-14T18:03:49;100758.09;;;13.22;100.00
2549;BME280;1284;53.520;10.248;2024-02-14T18:06:47;100749.97;;;13.22;100.00
2549;BME280;1284;53.520;10.248;2024-02-14T18:12:46;100749.31;;;13.02;100.00
2549;BME280;1284;53.520;10.248;2024-02-14T18:16:00;100753.22;;;13.05;100.00
2549;BME280;1284;53.520;10.248;2024-02-14T18:22:33;100762.06;;;13.02;100.00
2549;BME280;1284;53.520;10.248;2024-02-14T18:25:30;100758.69;;;13.08;100.00
2549;BME280;1284;53.520;10.248;2024-02-14T18:31:03;100762.69;;;12.92;100.00
2549;BME280;1284;53.520;10.248;2024-02-14T18:33:50;100767.94;;;13.07;100.00
2549;BME280;1284;53.520;10.248;2024-02-14T18:37:34;100761.84;;;13.14;100.00
2549;BME280;1284;53.520;10.248;2024-02-14T18:40:32;100768.72;;;13.08;100.00
2549;BME280;1284;53.520;10.248;2024-02-14T18:43:35;100758.31;;;13.10;100.00
2549;BME280;1284;53.520;10.248;2024-02-14T19:00:16;100756.84;;;13.16;100.00
2549;BME280;1284;53.520;10.248;2024-02-14T19:11:05;100743.00;;;12.91;100.00
2549;BME280;1284;53.520;10.248;2024-02-14T19:14:03;100746.06;;;12.90;100.00
2549;BME280;1284;53.520;10.248;2024-02-14T19:16:38;100750.03;;;12.99;100.00
2549;BME280;1284;53.520;10.248;2024-02-14T19:19:04;100757.03;;;13.00;100.00
2549;BME280;1284;53.520;10.248;2024-02-14T19:21:33;100763.19;;;13.01;100.00
2549;BME280;1284;53.520;10.248;2024-02-14T19:24:03;100759.81;;;13.07;100.00
2549;BME280;1284;53.520;10.248;2024-02-14T19:26:40;100764.34;;;13.00;100.00
2549;BME280;1284;53.520;10.248;2024-02-14T19:29:09;100767.47;;;13.02;100.00
2549;BME280;1284;53.520;10.248;2024-02-14T19:31:40;100764.03;;;13.05;100.00
2549;BME280;1284;53.520;10.248;2024-02-14T19:34:06;100767.28;;;13.17;100.00
2549;BME280;1284;53.520;10.248;2024-02-14T19:36:32;100762.78;;;13.28;100.00
2549;BME280;1284;53.520;10.248;2024-02-14T19:39:01;100770.72;;;13.14;100.00
2549;BME280;1284;53.520;10.248;2024-02-14T19:41:56;100763.75;;;13.13;100.00
2549;BME280;1284;53.520;10.248;2024-02-14T19:44:44;100768.00;;;13.14;100.00
2549;BME280;1284;53.520;10.248;2024-02-14T19:50:30;100767.91;;;13.04;100.00
2549;BME280;1284;53.520;10.248;2024-02-14T19:53:13;100762.25;;;13.16;100.00
2549;BME280;1284;53.520;10.248;2024-02-14T19:56:40;100767.16;;;13.07;100.00
2549;BME280;1284;53.520;10.248;2024-02-14T19:59:51;100768.75;;;13.11;100.00
2549;BME280;1284;53.520;10.248;2024-02-14T20:06:43;100765.72;;;13.16;100.00
2549;BME280;1284;53.520;10.248;2024-02-14T20:12:58;100768.13;;;13.21;100.00
2549;BME280;1284;53.520;10.248;2024-02-14T20:15:27;100760.81;;;13.25;100.00
2549;BME280;1284;53.520;10.248;2024-02-14T20:18:02;100771.59;;;13.22;100.00
2549;BME280;1284;53.520;10.248;2024-02-14T20:21:04;100768.56;;;13.27;100.00
2549;BME280;1284;53.520;10.248;2024-02-14T20:23:44;100772.47;;;13.29;100.00
2549;BME280;1284;53.520;10.248;2024-02-14T20:26:12;100781.25;;;13.23;100.00
2549;BME280;1284;53.520;10.248;2024-02-14T20:28:51;100784.31;;;13.18;100.00
2549;BME280;1284;53.520;10.248;2024-02-14T20:31:38;100787.03;;;13.21;100.00
2549;BME280;1284;53.520;10.248;2024-02-14T20:34:07;100784.66;;;13.16;100.00
2549;BME280;1284;53.520;10.248;2024-02-14T20:39:55;100780.97;;;13.31;100.00
2549;BME280;1284;53.520;10.248;2024-02-14T20:42:35;100784.84;;;13.34;100.00
2549;BME280;1284;53.520;10.248;2024-02-14T20:47:54;100777.03;;;13.25;100.00
2549;BME280;1284;53.520;10.248;2024-02-14T20:50:32;100774.03;;;13.34;100.00
2549;BME280;1284;53.520;10.248;2024-02-14T20:53:04;100778.22;;;13.28;100.00
2549;BME280;1284;53.520;10.248;2024-02-14T20:55:39;100775.09;;;13.26;100.00
2549;BME280;1284;53.520;10.248;2024-02-14T20:58:08;100767.41;;;13.28;100.00
2549;BME280;1284;53.520;10.248;2024-02-14T21:00:36;100778.19;;;13.24;100.00
2549;BME280;1284;53.520;10.248;2024-02-14T21:03:11;100782.88;;;13.27;100.00
2549;BME280;1284;53.520;10.248;2024-02-14T21:05:43;100784.84;;;13.34;100.00
2549;BME280;1284;53.520;10.248;2024-02-14T21:08:35;100783.97;;;13.23;100.00
2549;BME280;1284;53.520;10.248;2024-02-14T21:11:49;100786.81;;;13.33;100.00
2549;BME280;1284;53.520;10.248;2024-02-14T21:18:22;100789.09;;;13.31;100.00
2549;BME280;1284;53.520;10.248;2024-02-14T21:20:53;100793.03;;;13.37;100.00
2549;BME280;1284;53.520;10.248;2024-02-14T21:23:33;100794.50;;;13.31;100.00
2549;BME280;1284;53.520;10.248;2024-02-14T21:26:37;100795.25;;;13.32;100.00
2549;BME280;1284;53.520;10.248;2024-02-14T21:29:08;100786.00;;;13.33;100.00
2549;BME280;1284;53.520;10.248;2024-02-14T21:31:34;100796.88;;;13.36;100.00
2549;BME280;1284;53.520;10.248;2024-02-14T21:34:10;100798.06;;;13.39;100.00
2549;BME280;1284;53.520;10.248;2024-02-14T21:36:45;100795.78;;;13.41;100.00
2549;BME280;1284;53.520;10.248;2024-02-14T21:39:12;100800.00;;;13.38;100.00
2549;BME280;1284;53.520;10.248;2024-02-14T21:41:43;100798.06;;;13.39;100.00
2549;BME280;1284;53.520;10.248;2024-02-14T21:44:18;100796.50;;;13.38;100.00
2549;BME280;1284;53.520;10.248;2024-02-14T21:46:46;100798.78;;;13.36;100.00
2549;BME280;1284;53.520;10.248;2024-02-14T21:49:17;100798.91;;;13.46;100.00
2549;BME280;1284;53.520;10.248;2024-02-14T21:51:48;100795.50;;;13.53;100.00
2549;BME280;1284;53.520;10.248;2024-02-14T21:54:24;100792.69;;;13.42;100.00
2549;BME280;1284;53.520;10.248;2024-02-14T21:56:55;100795.03;;;13.44;100.00
2549;BME280;1284;53.520;10.248;2024-02-14T21:59:21;100788.97;;;13.57;100.00
2549;BME280;1284;53.520;10.248;2024-02-14T22:01:50;100782.72;;;13.50;100.00
2549;BME280;1284;53.520;10.248;2024-02-14T22:04:36;100781.13;;;13.45;100.00
2549;BME280;1284;53.520;10.248;2024-02-14T22:07:04;100788.38;;;13.38;100.00
2549;BME280;1284;53.520;10.248;2024-02-14T22:09:35;100776.47;;;13.42;100.00
2549;BME280;1284;53.520;10.248;2024-02-14T22:12:06;100779.97;;;13.46;100.00
2549;BME280;1284;53.520;10.248;2024-02-14T22:14:35;100782.25;;;13.41;100.00
2549;BME280;1284;53.520;10.248;2024-02-14T22:17:10;100773.81;;;13.49;100.00
2549;BME280;1284;53.520;10.248;2024-02-14T22:19:39;100780.34;;;13.45;100.00
2549;BME280;1284;53.520;10.248;2024-02-14T22:22:11;100781.88;;;13.42;100.00
2549;BME280;1284;53.520;10.248;2024-02-14T22:24:40;100772.59;;;13.43;100.00
2549;BME280;1284;53.520;10.248;2024-02-14T22:27:13;100779.50;;;13.37;100.00
2549;BME280;1284;53.520;10.248;2024-02-14T22:29:50;100781.19;;;13.49;100.00
2549;BME280;1284;53.520;10.248;2024-02-14T22:32:31;100783.25;;;13.63;100.00
2549;BME280;1284;53.520;10.248;2024-02-14T22:35:29;100778.91;;;13.54;100.00
2549;BME280;1284;53.520;10.248;2024-02-14T22:38:17;100777.72;;;13.52;100.00
2549;BME280;1284;53.520;10.248;2024-02-14T22:40:44;100773.00;;;13.45;100.00
2549;BME280;1284;53.520;10.248;2024-02-14T22:43:44;100776.09;;;13.44;100.00
2549;BME280;1284;53.520;10.248;2024-02-14T22:46:43;100765.00;;;13.56;100.00
2549;BME280;1284;53.520;10.248;2024-02-14T22:49:24;100769.22;;;13.53;100.00
2549;BME280;1284;53.520;10.248;2024-02-14T22:51:53;100775.78;;;13.52;100.00
2549;BME280;1284;53.520;10.248;2024-02-14T22:54:18;100769.63;;;13.55;100.00
2549;BME280;1284;53.520;10.248;2024-02-14T22:56:48;100767.25;;;13.47;100.00
2549;BME280;1284;53.520;10.248;2024-02-14T22:59:22;100758.38;;;13.50;100.00
2549;BME280;1284;53.520;10.248;2024-02-14T23:01:55;100762.56;;;13.44;100.00
2549;BME280;1284;53.520;10.248;2024-02-14T23:04:30;100759.13;;;13.47;100.00
